sensor_id;sensor_type;location;lat;lon;timestamp;P1;durP1;ratioP1;P2;durP2;ratioP2
6661;SDS011;3367;48.714;8.994;2024-03-17T00:01:21;2.40;;;2.03;;
6661;SDS011;3367;48.714;8.994;2024-03-17T00:03:48;2.07;;;1.97;;
6661;SDS011;3367;48.714;8.994;2024-03-17T00:06:14;5.77;;;2.20;;
6661;SDS011;3367;48.714;8.994;2024-03-17T00:08:42;7.83;;;2.13;;
6661;SDS011;3367;48.714;8.994;2024-03-17T00:11:08;2.70;;;2.33;;
6661;SDS011;3367;48.714;8.994;2024-03-17T00:13:37;2.53;;;2.30;;
6661;SDS011;3367;48.714;8.994;2024-03-17T00:16:06;5.03;;;2.83;;
6661;SDS011;3367;48.714;8.994;2024-03-17T00:18:37;2.50;;;2.10;;
6661;SDS011;3367;48.714;8.994;2024-03-17T00:21:03;8.27;;;3.30;;
6661;SDS011;3367;48.714;8.994;2024-03-17T00:23:33;3.00;;;2.47;;
6661;SDS011;3367;48.714;8.994;2024-03-17T00:25:59;2.67;;;2.47;;
6661;SDS011;3367;48.714;8.994;2024-03-17T00:28:26;4.17;;;1.80;;
6661;SDS011;3367;48.714;8.994;2024-03-17T00:30:52;4.80;;;2.60;;
6661;SDS011;3367;48.714;8.994;2024-03-17T00:33:23;3.00;;;2.47;;
6661;SDS011;3367;48.714;8.994;2024-03-17T00:35:49;4.87;;;3.23;;
6661;SDS011;3367;48.714;8.994;2024-03-17T00:38:19;5.43;;;2.80;;
6661;SDS011;3367;48.714;8.994;2024-03-17T00:40:44;6.47;;;3.33;;
6661;SDS011;3367;48.714;8.994;2024-03-17T00:43:12;3.67;;;3.03;;
6661;SDS011;3367;48.714;8.994;2024-03-17T00:45:38;6.53;;;2.83;;
6661;SDS011;3367;48.714;8.994;2024-03-17T00:48:05;2.97;;;2.57;;
6661;SDS011;3367;48.714;8.994;2024-03-17T00:50:37;6.30;;;3.07;;
6661;SDS011;3367;48.714;8.994;2024-03-17T00:53:04;6.10;;;3.20;;
6661;SDS011;3367;48.714;8.994;2024-03-17T00:55:36;5.23;;;2.97;;
6661;SDS011;3367;48.714;8.994;2024-03-17T00:58:03;12.10;;;3.00;;
6661;SDS011;3367;48.714;8.994;2024-03-17T01:00:29;4.47;;;3.40;;
6661;SDS011;3367;48.714;8.994;2024-03-17T01:03:02;3.77;;;3.37;;
6661;SDS011;3367;48.714;8.994;2024-03-17T01:05:28;8.00;;;3.80;;
6661;SDS011;3367;48.714;8.994;2024-03-17T01:07:59;3.63;;;2.70;;
6661;SDS011;3367;48.714;8.994;2024-03-17T01:10:24;3.97;;;3.20;;
6661;SDS011;3367;48.714;8.994;2024-03-17T01:12:51;5.83;;;2.70;;
6661;SDS011;3367;48.714;8.994;2024-03-17T01:15:18;3.30;;;2.50;;
6661;SDS011;3367;48.714;8.994;2024-03-17T01:17:44;5.30;;;3.27;;
6661;SDS011;3367;48.714;8.994;2024-03-17T01:20:10;4.97;;;2.53;;
6661;SDS011;3367;48.714;8.994;2024-03-17T01:22:36;2.20;;;2.00;;
6661;SDS011;3367;48.714;8.994;2024-03-17T01:25:10;5.90;;;3.50;;
6661;SDS011;3367;48.714;8.994;2024-03-17T01:27:39;6.80;;;2.73;;
6661;SDS011;3367;48.714;8.994;2024-03-17T01:30:06;5.57;;;3.50;;
6661;SDS011;3367;48.714;8.994;2024-03-17T01:32:34;3.57;;;2.60;;
6661;SDS011;3367;48.714;8.994;2024-03-17T01:35:01;3.37;;;2.63;;
6661;SDS011;3367;48.714;8.994;2024-03-17T01:37:26;2.87;;;2.57;;
6661;SDS011;3367;48.714;8.994;2024-03-17T01:39:56;4.23;;;2.63;;
6661;SDS011;3367;48.714;8.994;2024-03-17T01:42:24;3.43;;;2.50;;
6661;SDS011;3367;48.714;8.994;2024-03-17T01:44:57;4.37;;;2.27;;
6661;SDS011;3367;48.714;8.994;2024-03-17T01:47:22;5.17;;;2.70;;
6661;SDS011;3367;48.714;8.994;2024-03-17T01:49:49;6.30;;;3.23;;
6661;SDS011;3367;48.714;8.994;2024-03-17T01:52:16;3.00;;;2.37;;
6661;SDS011;3367;48.714;8.994;2024-03-17T01:54:46;3.93;;;2.70;;
6661;SDS011;3367;48.714;8.994;2024-03-17T01:57:13;4.77;;;2.67;;
6661;SDS011;3367;48.714;8.994;2024-03-17T01:59:41;3.27;;;2.70;;
6661;SDS011;3367;48.714;8.994;2024-03-17T02:02:10;4.00;;;2.70;;
6661;SDS011;3367;48.714;8.994;2024-03-17T02:04:37;5.87;;;3.30;;
6661;SDS011;3367;48.714;8.994;2024-03-17T02:07:02;4.50;;;3.10;;
6661;SDS011;3367;48.714;8.994;2024-03-17T02:09:29;2.30;;;2.10;;
6661;SDS011;3367;48.714;8.994;2024-03-17T02:11:55;2.93;;;2.60;;
6661;SDS011;3367;48.714;8.994;2024-03-17T02:14:24;4.67;;;2.47;;
6661;SDS011;3367;48.714;8.994;2024-03-17T02:16:52;3.80;;;2.40;;
6661;SDS011;3367;48.714;8.994;2024-03-17T02:19:18;3.53;;;2.47;;
6661;SDS011;3367;48.714;8.994;2024-03-17T02:21:44;7.70;;;2.93;;
6661;SDS011;3367;48.714;8.994;2024-03-17T02:24:15;4.13;;;2.07;;
6661;SDS011;3367;48.714;8.994;2024-03-17T02:26:41;3.33;;;2.10;;
6661;SDS011;3367;48.714;8.994;2024-03-17T02:29:07;7.47;;;3.17;;
6661;SDS011;3367;48.714;8.994;2024-03-17T02:31:34;4.97;;;3.33;;
6661;SDS011;3367;48.714;8.994;2024-03-17T02:34:01;5.97;;;3.03;;
6661;SDS011;3367;48.714;8.994;2024-03-17T02:36:27;2.80;;;2.50;;
6661;SDS011;3367;48.714;8.994;2024-03-17T02:38:53;4.30;;;2.97;;
6661;SDS011;3367;48.714;8.994;2024-03-17T02:41:43;2.83;;;2.60;;
6661;SDS011;3367;48.714;8.994;2024-03-17T02:44:11;4.30;;;3.23;;
6661;SDS011;3367;48.714;8.994;2024-03-17T02:46:37;3.33;;;2.80;;
6661;SDS011;3367;48.714;8.994;2024-03-17T02:49:04;4.30;;;3.20;;
6661;SDS011;3367;48.714;8.994;2024-03-17T02:51:32;5.10;;;2.80;;
6661;SDS011;3367;48.714;8.994;2024-03-17T02:54:05;6.57;;;3.87;;
6661;SDS011;3367;48.714;8.994;2024-03-17T02:56:32;6.73;;;3.63;;
6661;SDS011;3367;48.714;8.994;2024-03-17T02:59:06;4.50;;;3.50;;
6661;SDS011;3367;48.714;8.994;2024-03-17T03:01:35;3.00;;;2.70;;
6661;SDS011;3367;48.714;8.994;2024-03-17T03:04:02;9.40;;;3.90;;
6661;SDS011;3367;48.714;8.994;2024-03-17T03:06:29;4.17;;;3.27;;
6661;SDS011;3367;48.714;8.994;2024-03-17T03:09:05;4.93;;;3.33;;
6661;SDS011;3367;48.714;8.994;2024-03-17T03:11:37;4.20;;;3.20;;
6661;SDS011;3367;48.714;8.994;2024-03-17T03:14:08;4.83;;;2.90;;
6661;SDS011;3367;48.714;8.994;2024-03-17T03:16:35;3.47;;;2.83;;
6661;SDS011;3367;48.714;8.994;2024-03-17T03:19:01;3.80;;;2.40;;
6661;SDS011;3367;48.714;8.994;2024-03-17T03:21:28;5.87;;;3.50;;
6661;SDS011;3367;48.714;8.994;2024-03-17T03:23:55;3.43;;;2.80;;
6661;SDS011;3367;48.714;8.994;2024-03-17T03:26:24;3.93;;;3.10;;
6661;SDS011;3367;48.714;8.994;2024-03-17T03:28:51;4.10;;;3.10;;
6661;SDS011;3367;48.714;8.994;2024-03-17T03:31:20;7.07;;;3.47;;
6661;SDS011;3367;48.714;8.994;2024-03-17T03:33:47;3.57;;;3.03;;
6661;SDS011;3367;48.714;8.994;2024-03-17T03:36:14;4.10;;;2.90;;
6661;SDS011;3367;48.714;8.994;2024-03-17T03:38:42;6.97;;;2.77;;
6661;SDS011;3367;48.714;8.994;2024-03-17T03:41:12;5.90;;;3.37;;
6661;SDS011;3367;48.714;8.994;2024-03-17T03:43:41;5.07;;;3.20;;
6661;SDS011;3367;48.714;8.994;2024-03-17T03:46:08;7.17;;;4.00;;
6661;SDS011;3367;48.714;8.994;2024-03-17T03:48:37;2.90;;;2.60;;
6661;SDS011;3367;48.714;8.994;2024-03-17T03:51:04;3.30;;;2.20;;
6661;SDS011;3367;48.714;8.994;2024-03-17T03:53:34;3.67;;;2.67;;
6661;SDS011;3367;48.714;8.994;2024-03-17T03:56:02;5.30;;;3.00;;
6661;SDS011;3367;48.714;8.994;2024-03-17T03:58:31;4.50;;;2.50;;
6661;SDS011;3367;48.714;8.994;2024-03-17T04:00:59;3.67;;;2.97;;
6661;SDS011;3367;48.714;8.994;2024-03-17T04:03:26;3.10;;;2.80;;
6661;SDS011;3367;48.714;8.994;2024-03-17T04:06:01;3.33;;;2.60;;
6661;SDS011;3367;48.714;8.994;2024-03-17T04:08:30;3.43;;;2.87;;
6661;SDS011;3367;48.714;8.994;2024-03-17T04:11:06;3.53;;;2.60;;
6661;SDS011;3367;48.714;8.994;2024-03-17T04:13:36;3.53;;;2.73;;
6661;SDS011;3367;48.714;8.994;2024-03-17T04:16:07;5.30;;;2.73;;
6661;SDS011;3367;48.714;8.994;2024-03-17T04:18:41;5.27;;;3.60;;
6661;SDS011;3367;48.714;8.994;2024-03-17T04:21:09;5.30;;;2.70;;
6661;SDS011;3367;48.714;8.994;2024-03-17T04:23:42;4.57;;;2.23;;
6661;SDS011;3367;48.714;8.994;2024-03-17T04:26:09;3.03;;;2.23;;
6661;SDS011;3367;48.714;8.994;2024-03-17T04:28:38;3.60;;;2.43;;
6661;SDS011;3367;48.714;8.994;2024-03-17T04:31:08;2.90;;;2.30;;
6661;SDS011;3367;48.714;8.994;2024-03-17T04:33:36;2.60;;;1.90;;
6661;SDS011;3367;48.714;8.994;2024-03-17T04:36:03;2.70;;;2.30;;
6661;SDS011;3367;48.714;8.994;2024-03-17T04:38:32;3.27;;;2.70;;
6661;SDS011;3367;48.714;8.994;2024-03-17T04:40:59;3.20;;;2.30;;
6661;SDS011;3367;48.714;8.994;2024-03-17T04:43:33;4.37;;;2.67;;
6661;SDS011;3367;48.714;8.994;2024-03-17T04:46:00;7.33;;;2.40;;
6661;SDS011;3367;48.714;8.994;2024-03-17T04:48:29;5.37;;;2.57;;
6661;SDS011;3367;48.714;8.994;2024-03-17T04:50:56;3.50;;;2.77;;
6661;SDS011;3367;48.714;8.994;2024-03-17T04:53:26;7.60;;;3.60;;
6661;SDS011;3367;48.714;8.994;2024-03-17T04:55:59;7.37;;;3.57;;
6661;SDS011;3367;48.714;8.994;2024-03-17T04:58:27;3.60;;;3.00;;
6661;SDS011;3367;48.714;8.994;2024-03-17T05:00:54;5.07;;;3.53;;
6661;SDS011;3367;48.714;8.994;2024-03-17T05:03:28;7.03;;;3.77;;
6661;SDS011;3367;48.714;8.994;2024-03-17T05:05:58;7.00;;;3.90;;
6661;SDS011;3367;48.714;8.994;2024-03-17T05:08:27;4.93;;;3.03;;
6661;SDS011;3367;48.714;8.994;2024-03-17T05:10:56;6.73;;;3.90;;
6661;SDS011;3367;48.714;8.994;2024-03-17T05:13:25;8.23;;;3.77;;
6661;SDS011;3367;48.714;8.994;2024-03-17T05:16:06;6.07;;;3.90;;
6661;SDS011;3367;48.714;8.994;2024-03-17T05:18:33;5.77;;;3.60;;
6661;SDS011;3367;48.714;8.994;2024-03-17T05:21:03;4.63;;;3.43;;
6661;SDS011;3367;48.714;8.994;2024-03-17T05:23:31;4.20;;;3.20;;
6661;SDS011;3367;48.714;8.994;2024-03-17T05:25:58;3.70;;;3.00;;
6661;SDS011;3367;48.714;8.994;2024-03-17T05:28:28;4.50;;;2.57;;
6661;SDS011;3367;48.714;8.994;2024-03-17T05:30:55;5.77;;;2.67;;
6661;SDS011;3367;48.714;8.994;2024-03-17T05:33:25;4.60;;;3.00;;
6661;SDS011;3367;48.714;8.994;2024-03-17T05:35:52;5.93;;;4.13;;
6661;SDS011;3367;48.714;8.994;2024-03-17T05:38:20;7.83;;;4.10;;
6661;SDS011;3367;48.714;8.994;2024-03-17T05:40:54;8.57;;;4.07;;
6661;SDS011;3367;48.714;8.994;2024-03-17T05:43:26;8.17;;;4.37;;
6661;SDS011;3367;48.714;8.994;2024-03-17T05:45:56;8.77;;;4.17;;
6661;SDS011;3367;48.714;8.994;2024-03-17T05:48:26;4.97;;;3.30;;
6661;SDS011;3367;48.714;8.994;2024-03-17T05:50:53;7.33;;;4.73;;
6661;SDS011;3367;48.714;8.994;2024-03-17T05:53:21;9.43;;;4.90;;
6661;SDS011;3367;48.714;8.994;2024-03-17T05:55:49;9.33;;;4.87;;
6661;SDS011;3367;48.714;8.994;2024-03-17T05:58:16;9.47;;;5.00;;
6661;SDS011;3367;48.714;8.994;2024-03-17T06:00:45;12.57;;;5.63;;
6661;SDS011;3367;48.714;8.994;2024-03-17T06:03:11;7.93;;;5.00;;
6661;SDS011;3367;48.714;8.994;2024-03-17T06:05:42;8.10;;;5.43;;
6661;SDS011;3367;48.714;8.994;2024-03-17T06:08:11;9.07;;;5.27;;
6661;SDS011;3367;48.714;8.994;2024-03-17T06:10:41;9.00;;;5.37;;
6661;SDS011;3367;48.714;8.994;2024-03-17T06:13:10;11.27;;;5.17;;
6661;SDS011;3367;48.714;8.994;2024-03-17T06:15:38;9.17;;;5.10;;
6661;SDS011;3367;48.714;8.994;2024-03-17T06:18:09;11.90;;;5.53;;
6661;SDS011;3367;48.714;8.994;2024-03-17T06:20:39;8.73;;;4.73;;
6661;SDS011;3367;48.714;8.994;2024-03-17T06:23:08;10.70;;;6.30;;
6661;SDS011;3367;48.714;8.994;2024-03-17T06:25:37;9.10;;;5.23;;
6661;SDS011;3367;48.714;8.994;2024-03-17T06:28:05;11.20;;;5.57;;
6661;SDS011;3367;48.714;8.994;2024-03-17T06:30:32;10.17;;;5.63;;
6661;SDS011;3367;48.714;8.994;2024-03-17T06:33:04;13.70;;;5.40;;
6661;SDS011;3367;48.714;8.994;2024-03-17T06:35:37;8.70;;;4.60;;
6661;SDS011;3367;48.714;8.994;2024-03-17T06:38:04;8.40;;;5.00;;
6661;SDS011;3367;48.714;8.994;2024-03-17T06:40:34;7.10;;;4.50;;
6661;SDS011;3367;48.714;8.994;2024-03-17T06:43:04;10.80;;;4.87;;
6661;SDS011;3367;48.714;8.994;2024-03-17T06:45:31;9.20;;;5.10;;
6661;SDS011;3367;48.714;8.994;2024-03-17T06:48:01;8.77;;;5.03;;
6661;SDS011;3367;48.714;8.994;2024-03-17T06:50:28;10.60;;;6.53;;
6661;SDS011;3367;48.714;8.994;2024-03-17T06:52:56;7.73;;;4.80;;
6661;SDS011;3367;48.714;8.994;2024-03-17T06:55:23;7.93;;;5.30;;
6661;SDS011;3367;48.714;8.994;2024-03-17T06:57:53;9.27;;;5.30;;
6661;SDS011;3367;48.714;8.994;2024-03-17T07:00:22;9.37;;;5.33;;
6661;SDS011;3367;48.714;8.994;2024-03-17T07:02:52;9.73;;;5.20;;
6661;SDS011;3367;48.714;8.994;2024-03-17T07:05:25;7.13;;;5.00;;
6661;SDS011;3367;48.714;8.994;2024-03-17T07:07:52;7.20;;;4.33;;
6661;SDS011;3367;48.714;8.994;2024-03-17T07:10:20;7.37;;;4.90;;
6661;SDS011;3367;48.714;8.994;2024-03-17T07:12:46;7.57;;;4.80;;
6661;SDS011;3367;48.714;8.994;2024-03-17T07:15:16;6.30;;;4.63;;
6661;SDS011;3367;48.714;8.994;2024-03-17T07:17:44;7.27;;;4.70;;
6661;SDS011;3367;48.714;8.994;2024-03-17T07:20:11;5.87;;;4.53;;
6661;SDS011;3367;48.714;8.994;2024-03-17T07:22:38;6.73;;;4.30;;
6661;SDS011;3367;48.714;8.994;2024-03-17T07:25:08;6.23;;;5.43;;
6661;SDS011;3367;48.714;8.994;2024-03-17T07:27:36;9.80;;;5.30;;
6661;SDS011;3367;48.714;8.994;2024-03-17T07:30:03;7.03;;;4.40;;
6661;SDS011;3367;48.714;8.994;2024-03-17T07:32:38;7.60;;;4.60;;
6661;SDS011;3367;48.714;8.994;2024-03-17T07:35:07;7.43;;;5.03;;
6661;SDS011;3367;48.714;8.994;2024-03-17T07:37:37;8.27;;;5.40;;
6661;SDS011;3367;48.714;8.994;2024-03-17T07:40:07;8.00;;;4.73;;
6661;SDS011;3367;48.714;8.994;2024-03-17T07:42:37;7.50;;;4.67;;
6661;SDS011;3367;48.714;8.994;2024-03-17T07:45:04;19.93;;;4.30;;
6661;SDS011;3367;48.714;8.994;2024-03-17T07:47:31;6.13;;;4.57;;
6661;SDS011;3367;48.714;8.994;2024-03-17T07:50:00;5.00;;;4.23;;
6661;SDS011;3367;48.714;8.994;2024-03-17T07:52:29;3.27;;;2.97;;
6661;SDS011;3367;48.714;8.994;2024-03-17T07:54:56;3.37;;;3.07;;
6661;SDS011;3367;48.714;8.994;2024-03-17T07:57:22;4.93;;;3.40;;
6661;SDS011;3367;48.714;8.994;2024-03-17T07:59:54;4.87;;;3.77;;
6661;SDS011;3367;48.714;8.994;2024-03-17T08:02:26;3.83;;;3.30;;
6661;SDS011;3367;48.714;8.994;2024-03-17T08:04:54;3.47;;;3.17;;
6661;SDS011;3367;48.714;8.994;2024-03-17T08:07:20;6.70;;;3.63;;
6661;SDS011;3367;48.714;8.994;2024-03-17T08:09:47;4.87;;;3.63;;
6661;SDS011;3367;48.714;8.994;2024-03-17T08:12:16;13.53;;;4.47;;
6661;SDS011;3367;48.714;8.994;2024-03-17T08:14:43;4.83;;;3.90;;
6661;SDS011;3367;48.714;8.994;2024-03-17T08:17:12;7.43;;;4.57;;
6661;SDS011;3367;48.714;8.994;2024-03-17T08:19:39;5.27;;;4.77;;
6661;SDS011;3367;48.714;8.994;2024-03-17T08:22:06;7.50;;;4.70;;
6661;SDS011;3367;48.714;8.994;2024-03-17T08:24:36;6.33;;;4.30;;
6661;SDS011;3367;48.714;8.994;2024-03-17T08:27:03;9.87;;;6.30;;
6661;SDS011;3367;48.714;8.994;2024-03-17T08:29:30;9.00;;;6.50;;
6661;SDS011;3367;48.714;8.994;2024-03-17T08:32:00;10.23;;;6.27;;
6661;SDS011;3367;48.714;8.994;2024-03-17T08:34:28;7.37;;;5.23;;
6661;SDS011;3367;48.714;8.994;2024-03-17T08:36:58;7.37;;;5.43;;
6661;SDS011;3367;48.714;8.994;2024-03-17T08:39:27;7.03;;;6.33;;
6661;SDS011;3367;48.714;8.994;2024-03-17T08:41:54;10.87;;;6.87;;
6661;SDS011;3367;48.714;8.994;2024-03-17T08:44:23;7.87;;;5.20;;
6661;SDS011;3367;48.714;8.994;2024-03-17T08:46:49;6.77;;;5.27;;
6661;SDS011;3367;48.714;8.994;2024-03-17T08:49:23;5.93;;;5.03;;
6661;SDS011;3367;48.714;8.994;2024-03-17T08:51:52;6.77;;;5.10;;
6661;SDS011;3367;48.714;8.994;2024-03-17T08:54:19;7.67;;;5.27;;
6661;SDS011;3367;48.714;8.994;2024-03-17T08:56:46;6.47;;;5.00;;
6661;SDS011;3367;48.714;8.994;2024-03-17T08:59:14;7.93;;;5.10;;
6661;SDS011;3367;48.714;8.994;2024-03-17T09:01:41;4.70;;;4.00;;
6661;SDS011;3367;48.714;8.994;2024-03-17T09:04:08;5.73;;;4.33;;
6661;SDS011;3367;48.714;8.994;2024-03-17T09:06:36;5.60;;;4.03;;
6661;SDS011;3367;48.714;8.994;2024-03-17T09:09:04;4.93;;;3.80;;
6661;SDS011;3367;48.714;8.994;2024-03-17T09:11:31;5.10;;;3.50;;
6661;SDS011;3367;48.714;8.994;2024-03-17T09:13:58;2.67;;;2.47;;
6661;SDS011;3367;48.714;8.994;2024-03-17T09:16:26;3.03;;;2.47;;
6661;SDS011;3367;48.714;8.994;2024-03-17T09:18:55;3.00;;;2.80;;
6661;SDS011;3367;48.714;8.994;2024-03-17T09:21:22;2.83;;;2.63;;
6661;SDS011;3367;48.714;8.994;2024-03-17T09:23:49;7.10;;;2.77;;
6661;SDS011;3367;48.714;8.994;2024-03-17T09:26:17;2.70;;;2.40;;
6661;SDS011;3367;48.714;8.994;2024-03-17T09:28:44;2.80;;;2.60;;
6661;SDS011;3367;48.714;8.994;2024-03-17T09:31:11;3.40;;;2.57;;
6661;SDS011;3367;48.714;8.994;2024-03-17T09:33:38;4.50;;;2.73;;
6661;SDS011;3367;48.714;8.994;2024-03-17T09:36:05;2.60;;;2.40;;
6661;SDS011;3367;48.714;8.994;2024-03-17T09:38:33;4.33;;;2.90;;
6661;SDS011;3367;48.714;8.994;2024-03-17T09:41:00;4.63;;;2.90;;
6661;SDS011;3367;48.714;8.994;2024-03-17T09:43:29;2.93;;;2.63;;
6661;SDS011;3367;48.714;8.994;2024-03-17T09:45:59;6.10;;;2.33;;
6661;SDS011;3367;48.714;8.994;2024-03-17T09:48:28;7.00;;;2.70;;
6661;SDS011;3367;48.714;8.994;2024-03-17T09:50:56;2.33;;;1.87;;
6661;SDS011;3367;48.714;8.994;2024-03-17T09:53:24;2.97;;;2.10;;
6661;SDS011;3367;48.714;8.994;2024-03-17T09:55:52;5.67;;;2.20;;
6661;SDS011;3367;48.714;8.994;2024-03-17T09:58:22;3.60;;;2.53;;
6661;SDS011;3367;48.714;8.994;2024-03-17T10:00:50;1.93;;;1.83;;
6661;SDS011;3367;48.714;8.994;2024-03-17T10:06:10;2.97;;;1.80;;
6661;SDS011;3367;48.714;8.994;2024-03-17T10:08:41;2.80;;;2.30;;
6661;SDS011;3367;48.714;8.994;2024-03-17T10:11:08;2.57;;;2.37;;
6661;SDS011;3367;48.714;8.994;2024-03-17T10:13:36;2.60;;;2.23;;
6661;SDS011;3367;48.714;8.994;2024-03-17T10:16:04;2.40;;;2.20;;
6661;SDS011;3367;48.714;8.994;2024-03-17T10:18:31;3.77;;;1.90;;
6661;SDS011;3367;48.714;8.994;2024-03-17T10:20:58;4.47;;;2.30;;
6661;SDS011;3367;48.714;8.994;2024-03-17T10:23:26;2.07;;;1.87;;
6661;SDS011;3367;48.714;8.994;2024-03-17T10:25:53;2.70;;;2.50;;
6661;SDS011;3367;48.714;8.994;2024-03-17T10:28:20;1.77;;;1.50;;
6661;SDS011;3367;48.714;8.994;2024-03-17T10:30:56;2.13;;;1.60;;
6661;SDS011;3367;48.714;8.994;2024-03-17T10:33:26;1.27;;;1.17;;
6661;SDS011;3367;48.714;8.994;2024-03-17T10:35:59;1.33;;;1.23;;
6661;SDS011;3367;48.714;8.994;2024-03-17T10:38:30;3.53;;;1.80;;
6661;SDS011;3367;48.714;8.994;2024-03-17T10:40:59;2.27;;;2.10;;
6661;SDS011;3367;48.714;8.994;2024-03-17T10:43:27;2.23;;;1.60;;
6661;SDS011;3367;48.714;8.994;2024-03-17T10:45:54;1.50;;;1.40;;
6661;SDS011;3367;48.714;8.994;2024-03-17T10:48:26;1.50;;;1.40;;
6661;SDS011;3367;48.714;8.994;2024-03-17T10:50:58;2.00;;;1.90;;
6661;SDS011;3367;48.714;8.994;2024-03-17T10:53:27;4.93;;;1.60;;
6661;SDS011;3367;48.714;8.994;2024-03-17T10:56:03;3.17;;;1.80;;
6661;SDS011;3367;48.714;8.994;2024-03-17T10:58:34;2.73;;;1.97;;
6661;SDS011;3367;48.714;8.994;2024-03-17T11:01:02;3.90;;;1.77;;
6661;SDS011;3367;48.714;8.994;2024-03-17T11:03:32;3.20;;;2.17;;
6661;SDS011;3367;48.714;8.994;2024-03-17T11:06:00;2.47;;;1.77;;
6661;SDS011;3367;48.714;8.994;2024-03-17T11:08:30;1.63;;;1.53;;
6661;SDS011;3367;48.714;8.994;2024-03-17T11:11:00;3.13;;;2.00;;
6661;SDS011;3367;48.714;8.994;2024-03-17T11:13:29;4.20;;;2.43;;
6661;SDS011;3367;48.714;8.994;2024-03-17T11:15:58;2.73;;;2.53;;
6661;SDS011;3367;48.714;8.994;2024-03-17T11:18:35;3.73;;;1.70;;
6661;SDS011;3367;48.714;8.994;2024-03-17T11:21:02;5.97;;;1.33;;
6661;SDS011;3367;48.714;8.994;2024-03-17T11:23:35;1.20;;;1.00;;
6661;SDS011;3367;48.714;8.994;2024-03-17T11:26:03;1.67;;;1.40;;
6661;SDS011;3367;48.714;8.994;2024-03-17T11:28:47;1.43;;;1.00;;
6661;SDS011;3367;48.714;8.994;2024-03-17T11:34:08;4.77;;;1.10;;
6661;SDS011;3367;48.714;8.994;2024-03-17T11:36:53;2.73;;;1.03;;
6661;SDS011;3367;48.714;8.994;2024-03-17T11:39:20;2.97;;;1.07;;
6661;SDS011;3367;48.714;8.994;2024-03-17T11:41:50;3.80;;;2.50;;
6661;SDS011;3367;48.714;8.994;2024-03-17T11:44:24;1.23;;;1.03;;
6661;SDS011;3367;48.714;8.994;2024-03-17T11:46:52;3.70;;;1.17;;
6661;SDS011;3367;48.714;8.994;2024-03-17T11:49:22;2.20;;;0.90;;
6661;SDS011;3367;48.714;8.994;2024-03-17T11:51:50;1.70;;;1.00;;
6661;SDS011;3367;48.714;8.994;2024-03-17T11:54:17;1.43;;;0.73;;
6661;SDS011;3367;48.714;8.994;2024-03-17T11:56:46;1.63;;;0.90;;
6661;SDS011;3367;48.714;8.994;2024-03-17T11:59:13;1.57;;;0.80;;
6661;SDS011;3367;48.714;8.994;2024-03-17T12:01:42;2.63;;;0.90;;
6661;SDS011;3367;48.714;8.994;2024-03-17T12:04:09;1.00;;;0.90;;
6661;SDS011;3367;48.714;8.994;2024-03-17T12:06:39;1.70;;;0.93;;
6661;SDS011;3367;48.714;8.994;2024-03-17T12:09:08;2.53;;;1.33;;
6661;SDS011;3367;48.714;8.994;2024-03-17T12:11:37;1.77;;;0.80;;
6661;SDS011;3367;48.714;8.994;2024-03-17T12:14:15;2.07;;;1.10;;
6661;SDS011;3367;48.714;8.994;2024-03-17T12:16:47;1.30;;;1.20;;
6661;SDS011;3367;48.714;8.994;2024-03-17T12:19:17;2.17;;;1.23;;
6661;SDS011;3367;48.714;8.994;2024-03-17T12:21:47;1.37;;;1.17;;
6661;SDS011;3367;48.714;8.994;2024-03-17T12:24:16;1.20;;;1.00;;
6661;SDS011;3367;48.714;8.994;2024-03-17T12:26:43;1.37;;;0.90;;
6661;SDS011;3367;48.714;8.994;2024-03-17T12:29:23;2.07;;;1.07;;
6661;SDS011;3367;48.714;8.994;2024-03-17T12:31:52;2.10;;;0.87;;
6661;SDS011;3367;48.714;8.994;2024-03-17T12:34:20;4.00;;;1.10;;
6661;SDS011;3367;48.714;8.994;2024-03-17T12:36:48;1.23;;;0.93;;
6661;SDS011;3367;48.714;8.994;2024-03-17T12:39:19;1.07;;;0.97;;
6661;SDS011;3367;48.714;8.994;2024-03-17T12:42:00;1.20;;;1.10;;
6661;SDS011;3367;48.714;8.994;2024-03-17T12:44:32;0.73;;;0.73;;
6661;SDS011;3367;48.714;8.994;2024-03-17T12:46:58;1.43;;;0.90;;
6661;SDS011;3367;48.714;8.994;2024-03-17T12:49:27;0.80;;;0.73;;
6661;SDS011;3367;48.714;8.994;2024-03-17T12:51:54;1.07;;;0.93;;
6661;SDS011;3367;48.714;8.994;2024-03-17T12:54:22;2.63;;;1.20;;
6661;SDS011;3367;48.714;8.994;2024-03-17T12:56:49;1.03;;;0.93;;
6661;SDS011;3367;48.714;8.994;2024-03-17T12:59:41;1.07;;;0.90;;
6661;SDS011;3367;48.714;8.994;2024-03-17T13:02:25;2.13;;;1.90;;
6661;SDS011;3367;48.714;8.994;2024-03-17T13:05:14;1.50;;;1.17;;
6661;SDS011;3367;48.714;8.994;2024-03-17T13:07:43;2.00;;;1.30;;
6661;SDS011;3367;48.714;8.994;2024-03-17T13:10:20;1.23;;;1.13;;
6661;SDS011;3367;48.714;8.994;2024-03-17T13:12:47;1.73;;;0.90;;
6661;SDS011;3367;48.714;8.994;2024-03-17T13:15:15;1.87;;;1.07;;
6661;SDS011;3367;48.714;8.994;2024-03-17T13:17:46;0.90;;;0.80;;
6661;SDS011;3367;48.714;8.994;2024-03-17T13:20:16;1.03;;;0.90;;
6661;SDS011;3367;48.714;8.994;2024-03-17T13:22:53;1.57;;;1.00;;
6661;SDS011;3367;48.714;8.994;2024-03-17T13:25:20;2.93;;;1.37;;
6661;SDS011;3367;48.714;8.994;2024-03-17T13:27:52;3.07;;;1.30;;
6661;SDS011;3367;48.714;8.994;2024-03-17T13:30:22;0.93;;;0.93;;
6661;SDS011;3367;48.714;8.994;2024-03-17T13:32:52;1.37;;;1.00;;
6661;SDS011;3367;48.714;8.994;2024-03-17T13:35:26;8.20;;;1.30;;
6661;SDS011;3367;48.714;8.994;2024-03-17T13:38:02;1.73;;;0.90;;
6661;SDS011;3367;48.714;8.994;2024-03-17T13:40:28;1.23;;;0.80;;
6661;SDS011;3367;48.714;8.994;2024-03-17T13:42:58;1.03;;;0.90;;
6661;SDS011;3367;48.714;8.994;2024-03-17T13:45:28;2.13;;;0.90;;
6661;SDS011;3367;48.714;8.994;2024-03-17T13:47:57;1.13;;;1.00;;
6661;SDS011;3367;48.714;8.994;2024-03-17T13:50:25;0.87;;;0.70;;
6661;SDS011;3367;48.714;8.994;2024-03-17T13:52:52;5.07;;;1.10;;
6661;SDS011;3367;48.714;8.994;2024-03-17T13:55:22;1.93;;;0.90;;
6661;SDS011;3367;48.714;8.994;2024-03-17T13:57:50;1.20;;;1.10;;
6661;SDS011;3367;48.714;8.994;2024-03-17T14:00:24;1.27;;;0.90;;
6661;SDS011;3367;48.714;8.994;2024-03-17T14:02:55;1.20;;;1.00;;
6661;SDS011;3367;48.714;8.994;2024-03-17T14:05:23;1.57;;;0.80;;
6661;SDS011;3367;48.714;8.994;2024-03-17T14:07:53;1.07;;;0.87;;
6661;SDS011;3367;48.714;8.994;2024-03-17T14:10:22;0.80;;;0.60;;
6661;SDS011;3367;48.714;8.994;2024-03-17T14:12:52;2.87;;;0.80;;
6661;SDS011;3367;48.714;8.994;2024-03-17T14:15:19;1.87;;;0.80;;
6661;SDS011;3367;48.714;8.994;2024-03-17T14:17:47;1.07;;;0.80;;
6661;SDS011;3367;48.714;8.994;2024-03-17T14:20:15;1.07;;;0.97;;
6661;SDS011;3367;48.714;8.994;2024-03-17T14:22:43;5.23;;;1.00;;
6661;SDS011;3367;48.714;8.994;2024-03-17T14:25:12;1.00;;;0.80;;
6661;SDS011;3367;48.714;8.994;2024-03-17T14:27:45;1.20;;;0.80;;
6661;SDS011;3367;48.714;8.994;2024-03-17T14:30:14;1.90;;;0.77;;
6661;SDS011;3367;48.714;8.994;2024-03-17T14:32:44;2.50;;;1.50;;
6661;SDS011;3367;48.714;8.994;2024-03-17T14:35:14;2.60;;;1.60;;
6661;SDS011;3367;48.714;8.994;2024-03-17T14:37:42;1.17;;;0.70;;
6661;SDS011;3367;48.714;8.994;2024-03-17T14:40:12;1.33;;;0.67;;
6661;SDS011;3367;48.714;8.994;2024-03-17T14:42:49;1.00;;;0.90;;
6661;SDS011;3367;48.714;8.994;2024-03-17T14:45:17;4.97;;;1.33;;
6661;SDS011;3367;48.714;8.994;2024-03-17T14:47:49;1.50;;;0.87;;
6661;SDS011;3367;48.714;8.994;2024-03-17T14:50:21;1.83;;;0.70;;
6661;SDS011;3367;48.714;8.994;2024-03-17T14:52:48;0.90;;;0.70;;
6661;SDS011;3367;48.714;8.994;2024-03-17T14:55:14;3.73;;;1.33;;
6661;SDS011;3367;48.714;8.994;2024-03-17T14:57:41;2.80;;;0.90;;
6661;SDS011;3367;48.714;8.994;2024-03-17T15:00:10;1.47;;;0.60;;
6661;SDS011;3367;48.714;8.994;2024-03-17T15:02:44;0.83;;;0.73;;
6661;SDS011;3367;48.714;8.994;2024-03-17T15:05:17;1.10;;;0.83;;
6661;SDS011;3367;48.714;8.994;2024-03-17T15:07:44;2.63;;;0.70;;
6661;SDS011;3367;48.714;8.994;2024-03-17T15:10:14;1.87;;;1.03;;
6661;SDS011;3367;48.714;8.994;2024-03-17T15:12:45;0.97;;;0.70;;
6661;SDS011;3367;48.714;8.994;2024-03-17T15:15:13;5.10;;;1.10;;
6661;SDS011;3367;48.714;8.994;2024-03-17T15:17:43;0.60;;;0.50;;
6661;SDS011;3367;48.714;8.994;2024-03-17T15:20:13;0.70;;;0.57;;
6661;SDS011;3367;48.714;8.994;2024-03-17T15:22:48;2.37;;;0.60;;
6661;SDS011;3367;48.714;8.994;2024-03-17T15:25:16;4.30;;;0.90;;
6661;SDS011;3367;48.714;8.994;2024-03-17T15:27:48;0.77;;;0.67;;
6661;SDS011;3367;48.714;8.994;2024-03-17T15:30:16;1.17;;;0.70;;
6661;SDS011;3367;48.714;8.994;2024-03-17T15:32:44;1.13;;;0.97;;